Time;durP1;ratioP1;P1;durP2;ratioP2;P2;SDS_P1;SDS_P2;PMS_P1;PMS_P2;Temp;Humidity;BMP_temperature;BMP_pressure;BME280_temperature;BME280_humidity;BME280_pressure;Samples;Min_cycle;Max_cycle;Signal;HPM_P1;HPM_P2
2022/10/01 00:00:21;;;;;;;0.63;0.50;;;;;;;18.21;65.37;100011.41;5066286;28;20025;-87
2022/10/01 00:02:46;;;;;;;1.58;1.05;;;;;;;18.41;65.37;100039.94;5066247;28;20040;-88
2022/10/01 00:05:12;;;;;;;1.38;1.27;;;;;;;18.19;65.46;100031.97;5065942;28;20115;-87
2022/10/01 00:07:43;;;;;;;0.85;0.85;;;;;;;18.15;64.49;100015.22;5047940;28;20040;-88
2022/10/01 00:10:11;;;;;;;1.92;1.75;;;;;;;17.88;65.47;100033.16;5066731;28;20028;-87
2022/10/01 00:12:38;;;;;;;0.50;0.45;;;;;;;17.88;65.02;100042.06;5066180;28;20047;-86
2022/10/01 00:15:08;;;;;;;0.90;0.90;;;;;;;17.72;65.23;100039.13;5067184;28;20082;-87
2022/10/01 00:17:37;;;;;;;0.43;0.43;;;;;;;17.56;65.47;100002.44;5065865;28;20067;-87
2022/10/01 00:20:05;;;;;;;0.90;0.90;;;;;;;17.88;65.43;100035.84;5066124;28;20028;-86
2022/10/01 00:22:33;;;;;;;1.95;1.40;;;;;;;17.86;65.54;100032.38;5066207;28;20529;-85
2022/10/01 00:24:59;;;;;;;0.52;0.45;;;;;;;17.74;65.12;100011.50;5066401;28;20035;-87
2022/10/01 00:27:25;;;;;;;0.52;0.52;;;;;;;17.84;64.72;100035.09;5066674;28;20046;-87
2022/10/01 00:29:51;;;;;;;1.42;1.33;;;;;;;17.59;64.16;100011.16;5066806;28;20037;-88
2022/10/01 00:32:17;;;;;;;0.30;0.30;;;;;;;17.61;64.82;100046.66;5065928;28;20032;-86
2022/10/01 00:34:43;;;;;;;0.10;0.10;;;;;;;17.56;64.54;100021.09;5066181;28;20162;-85
2022/10/01 00:37:09;;;;;;;0.80;0.80;;;;;;;17.20;65.34;99978.91;5065401;28;20059;-87
2022/10/01 00:39:35;;;;;;;1.35;1.25;;;;;;;16.97;65.75;99954.00;5066512;28;20028;-87
2022/10/01 00:42:01;;;;;;;1.88;1.75;;;;;;;17.31;65.61;99998.03;5066266;28;20025;-86
2022/10/01 00:44:31;;;;;;;0.68;0.68;;;;;;;17.57;65.50;100029.03;5065667;28;20043;-87
2022/10/01 00:47:03;;;;;;;0.22;0.22;;;;;;;17.57;65.86;100034.38;5066331;28;20037;-87
2022/10/01 00:49:32;;;;;;;0.73;0.73;;;;;;;17.58;65.65;100022.78;5066511;28;20039;-87
2022/10/01 00:52:01;;;;;;;2.30;1.45;;;;;;;17.61;65.65;100017.34;5048234;28;20065;-88
2022/10/01 00:54:38;;;;;;;1.70;1.60;;;;;;;17.72;65.52;100017.78;5065899;28;20028;-87
2022/10/01 00:57:06;;;;;;;0.63;0.55;;;;;;;17.63;65.46;99995.94;5045172;28;20768;-89
2022/10/01 00:59:32;;;;;;;0.60;0.43;;;;;;;17.71;65.28;100000.00;5067447;28;20506;-88
2022/10/01 01:01:59;;;;;;;3.85;0.95;;;;;;;17.81;65.56;100031.66;5070230;28;20036;-88
2022/10/01 01:04:24;;;;;;;0.40;0.40;;;;;;;17.69;65.69;99996.53;5069212;28;20033;-87
2022/10/01 01:06:58;;;;;;;2.25;1.70;;;;;;;17.56;66.54;100008.63;5069634;28;20033;-88
2022/10/01 01:09:30;;;;;;;0.98;0.90;;;;;;;17.46;67.47;100009.94;5068271;28;20037;-87
2022/10/01 01:12:36;;;;;;;4.15;1.58;;;;;;;17.34;67.28;99995.25;5068551;28;20028;-88
2022/10/01 01:15:20;;;;;;;0.50;0.50;;;;;;;17.18;68.29;100005.63;5069294;28;20033;-88
2022/10/01 01:18:11;;;;;;;0.23;0.23;;;;;;;17.29;68.83;100040.75;5069183;28;20071;-87
2022/10/01 01:20:40;;;;;;;1.75;1.65;;;;;;;17.46;68.44;100026.78;5069449;28;20036;-87
2022/10/01 01:23:09;;;;;;;2.80;1.52;;;;;;;17.46;68.45;100024.13;5068942;28;20406;-87
2022/10/01 01:25:50;;;;;;;0.20;0.20;;;;;;;17.25;68.72;99990.28;5050914;28;20037;-87
2022/10/01 01:28:30;;;;;;;0.50;0.50;;;;;;;17.29;68.18;100019.41;5068927;28;20622;-87
2022/10/01 01:31:06;;;;;;;0.80;0.80;;;;;;;17.22;69.32;100030.38;5069079;28;20043;-88
2022/10/01 01:33:36;;;;;;;0.38;0.38;;;;;;;17.21;69.36;100029.50;5068717;28;20060;-87
2022/10/01 01:36:08;;;;;;;0.22;0.22;;;;;;;17.12;69.42;100037.84;5068806;28;20039;-88
2022/10/01 01:38:45;;;;;;;0.43;0.43;;;;;;;16.96;69.39;100035.75;5050970;28;20036;-88
2022/10/01 01:41:14;;;;;;;1.45;1.35;;;;;;;16.67;69.34;99996.78;5067901;28;20600;-88
2022/10/01 01:43:44;;;;;;;0.93;0.93;;;;;;;16.79;68.97;99998.13;5068934;28;20524;-88
2022/10/01 01:46:16;;;;;;;0.45;0.45;;;;;;;17.17;68.36;100050.06;5068894;28;20040;-88
2022/10/01 01:48:48;;;;;;;0.20;0.20;;;;;;;17.32;68.16;100045.97;5068805;28;20086;-88
2022/10/01 01:51:22;;;;;;;0.10;0.10;;;;;;;16.98;68.15;100019.69;5068405;28;20029;-88
2022/10/01 01:53:48;;;;;;;0.45;0.45;;;;;;;16.80;68.67;100024.69;5068102;28;20032;-90
2022/10/01 01:56:16;;;;;;;0.73;0.73;;;;;;;17.08;68.04;100038.88;5068698;28;20085;-90
2022/10/01 01:58:43;;;;;;;2.03;0.85;;;;;;;17.16;68.33;100053.66;5050671;28;20127;-89
2022/10/01 02:01:36;;;;;;;26.88;2.00;;;;;;;17.09;68.55;100049.47;5068194;28;20117;-88
2022/10/01 02:04:04;;;;;;;0.85;0.63;;;;;;;17.12;68.67;100038.72;5054000;28;20028;-88
2022/10/01 02:07:15;;;;;;;0.30;0.30;;;;;;;17.18;68.84;100056.28;5068251;28;20147;-89
2022/10/01 02:09:50;;;;;;;0.57;0.57;;;;;;;17.31;68.67;100054.88;5006131;28;20137;-88
2022/10/01 02:12:25;;;;;;;0.73;0.73;;;;;;;17.33;68.60;100068.16;5005748;28;20037;-89
2022/10/01 02:15:17;;;;;;;0.28;0.28;;;;;;;17.31;68.36;100072.69;5045352;28;20518;-88
2022/10/01 02:17:51;;;;;;;0.95;0.95;;;;;;;17.33;68.38;100066.38;5067758;28;20028;-88
2022/10/01 02:20:28;;;;;;;1.02;0.98;;;;;;;17.09;68.50;100035.28;5067894;28;20024;-86
2022/10/01 02:23:00;;;;;;;1.33;1.23;;;;;;;17.09;68.17;100022.81;5067785;28;20111;-87
2022/10/01 02:25:30;;;;;;;1.75;1.15;;;;;;;17.24;68.23;100048.06;5067772;28;20064;-87
2022/10/01 02:28:12;;;;;;;2.28;1.10;;;;;;;17.04;68.21;100031.91;5067358;28;20569;-87
2022/10/01 02:30:40;;;;;;;3.38;1.05;;;;;;;17.15;68.78;100064.38;5067515;28;20033;-88
2022/10/01 02:33:09;;;;;;;0.75;0.75;;;;;;;17.24;68.05;100080.06;5068118;28;20047;-88
2022/10/01 02:35:37;;;;;;;0.13;0.13;;;;;;;17.03;67.71;100067.50;5067779;28;20093;-88
2022/10/01 02:38:05;;;;;;;0.38;0.38;;;;;;;16.90;68.36;100059.03;5067357;28;20028;-88
2022/10/01 02:40:34;;;;;;;1.10;1.10;;;;;;;16.80;68.55;100051.34;5068551;28;20039;-88
2022/10/01 02:43:10;;;;;;;0.35;0.35;;;;;;;16.63;68.37;100030.63;5067311;28;20040;-88
2022/10/01 02:45:39;;;;;;;6.10;2.67;;;;;;;16.94;68.88;100084.66;5049428;28;20517;-88
2022/10/01 02:48:08;;;;;;;0.30;0.30;;;;;;;16.50;68.35;100031.97;5067856;28;20039;-88
2022/10/01 02:50:42;;;;;;;1.20;1.13;;;;;;;16.53;68.29;100026.56;5067757;28;20035;-88
2022/10/01 02:53:16;;;;;;;0.35;0.35;;;;;;;16.70;68.81;100065.03;5067505;28;20111;-87
2022/10/01 02:55:43;;;;;;;2.20;1.92;;;;;;;16.87;68.93;100081.34;5067374;28;20113;-87
2022/10/01 02:58:10;;;;;;;1.60;1.48;;;;;;;16.88;68.54;100067.09;5067206;28;20036;-88
2022/10/01 03:00:36;;;;;;;1.88;0.90;;;;;;;16.92;68.69;100067.88;5066751;28;20044;-88
2022/10/01 03:03:01;;;;;;;0.70;0.65;;;;;;;16.77;68.21;100047.94;5067875;28;20029;-87
2022/10/01 03:05:26;;;;;;;1.98;1.42;;;;;;;16.56;68.37;100020.22;5067239;28;20037;-87
2022/10/01 03:07:52;;;;;;;0.55;0.55;;;;;;;16.65;68.63;100055.44;5067499;28;20111;-87
2022/10/01 03:10:18;;;;;;;3.20;1.10;;;;;;;16.77;68.60;100059.44;5078230;28;20032;-87
2022/10/01 03:12:45;;;;;;;0.63;0.63;;;;;;;16.93;68.76;100086.47;5063419;28;20048;-88
2022/10/01 03:15:15;;;;;;;0.28;0.28;;;;;;;16.92;68.48;100071.41;5080990;28;20047;-87
2022/10/01 03:17:41;;;;;;;1.10;1.00;;;;;;;16.79;68.79;100084.25;5063606;28;20058;-88
2022/10/01 03:20:07;;;;;;;1.77;1.63;;;;;;;17.00;68.75;100113.75;5081059;28;20044;-88
2022/10/01 03:22:32;;;;;;;0.40;0.40;;;;;;;16.64;69.73;100076.78;5067081;28;20024;-87
2022/10/01 03:24:58;;;;;;;2.47;2.10;;;;;;;16.72;69.45;100081.84;5086118;28;20043;-87
2022/10/01 03:27:23;;;;;;;1.42;1.33;;;;;;;16.78;69.15;100068.31;5087586;28;20039;-88
2022/10/01 03:29:49;;;;;;;1.73;1.60;;;;;;;16.68;69.63;100065.09;5067482;28;20025;-87
2022/10/01 03:32:15;;;;;;;1.75;1.55;;;;;;;16.77;69.85;100099.41;5066714;28;20033;-87
2022/10/01 03:34:41;;;;;;;0.60;0.60;;;;;;;16.68;69.55;100064.22;5066787;28;20055;-87
2022/10/01 03:37:07;;;;;;;2.90;0.85;;;;;;;16.93;69.71;100099.78;5066770;28;20032;-88
2022/10/01 03:39:32;;;;;;;2.22;0.98;;;;;;;17.04;69.24;100090.53;5067166;28;20058;-88
2022/10/01 03:41:58;;;;;;;0.68;0.68;;;;;;;16.87;70.13;100080.47;5066979;28;20056;-88
2022/10/01 03:44:24;;;;;;;0.40;0.40;;;;;;;16.73;70.10;100054.28;5067404;28;20039;-88
2022/10/01 03:46:49;;;;;;;1.30;1.20;;;;;;;16.79;70.12;100051.41;5067101;28;20043;-88
2022/10/01 03:49:15;;;;;;;1.42;1.33;;;;;;;16.52;71.33;100051.44;5066919;28;20086;-88
2022/10/01 03:51:41;;;;;;;0.77;0.77;;;;;;;16.63;70.38;100041.28;5067045;28;20094;-88
2022/10/01 03:54:08;;;;;;;0.90;0.88;;;;;;;16.90;70.10;100069.69;5066794;28;20847;-88
2022/10/01 03:56:34;;;;;;;0.88;0.88;;;;;;;17.15;69.38;100091.91;5066353;28;20044;-88
2022/10/01 03:59:00;;;;;;;1.83;1.73;;;;;;;16.85;69.27;100035.19;5067085;28;20033;-87
2022/10/01 04:01:25;;;;;;;2.05;1.38;;;;;;;17.08;69.54;100101.03;5066861;28;20115;-88
2022/10/01 04:03:53;;;;;;;1.92;1.35;;;;;;;16.83;70.30;100085.00;5066640;28;20028;-88
2022/10/01 04:06:18;;;;;;;2.10;1.98;;;;;;;17.09;69.79;100118.78;5067009;28;20035;-87
2022/10/01 04:08:44;;;;;;;0.68;0.68;;;;;;;16.93;69.44;100088.25;5065638;28;20024;-87
2022/10/01 04:11:10;;;;;;;2.28;1.67;;;;;;;16.98;69.15;100100.50;5066705;28;20124;-88
2022/10/01 04:13:35;;;;;;;0.70;0.70;;;;;;;17.09;69.11;100126.78;5067871;28;20127;-87
2022/10/01 04:16:02;;;;;;;0.70;0.40;;;;;;;17.11;68.38;100140.91;5066326;28;20056;-88
2022/10/01 04:18:28;;;;;;;1.45;1.33;;;;;;;17.03;68.43;100112.81;5066083;28;20836;-88
2022/10/01 04:20:53;;;;;;;1.20;0.90;;;;;;;17.16;68.57;100133.63;5066521;28;20036;-87
2022/10/01 04:23:19;;;;;;;1.17;1.08;;;;;;;16.97;68.55;100113.88;5067293;28;20062;-87
2022/10/01 04:25:44;;;;;;;0.73;0.70;;;;;;;16.96;68.92;100126.34;5065960;28;20033;-87
2022/10/01 04:28:11;;;;;;;3.28;1.92;;;;;;;16.97;69.04;100125.41;5048330;28;20437;-87
2022/10/01 04:30:39;;;;;;;2.90;2.65;;;;;;;16.77;69.09;100141.16;5066835;28;20121;-87
2022/10/01 04:33:06;;;;;;;1.73;1.15;;;;;;;16.33;70.17;100092.88;5066644;28;20509;-87
2022/10/01 04:35:31;;;;;;;1.17;1.15;;;;;;;16.44;70.49;100133.38;5069900;28;20052;-88
2022/10/01 04:37:58;;;;;;;1.73;1.38;;;;;;;16.51;70.72;100148.22;5069718;28;20024;-87
2022/10/01 04:40:24;;;;;;;3.40;1.63;;;;;;;16.53;70.46;100137.50;5069930;28;20426;-87
2022/10/01 04:42:50;;;;;;;12.07;2.30;;;;;;;16.76;70.45;100150.06;5069775;28;20033;-87
2022/10/01 04:45:15;;;;;;;4.28;2.75;;;;;;;16.75;70.38;100148.34;5069952;28;20037;-88
2022/10/01 04:47:51;;;;;;;1.75;1.65;;;;;;;16.71;70.59;100141.38;5070226;28;20619;-88
2022/10/01 04:50:18;;;;;;;7.13;3.60;;;;;;;16.53;70.79;100111.78;5069618;28;20070;-87
2022/10/01 04:52:45;;;;;;;2.58;2.35;;;;;;;16.82;70.74;100172.06;5069660;28;20047;-89
2022/10/01 04:55:10;;;;;;;0.70;0.70;;;;;;;16.73;70.91;100160.81;5070037;28;20048;-87
2022/10/01 04:57:37;;;;;;;1.25;1.17;;;;;;;16.24;71.67;100120.69;5069718;28;20040;-87
2022/10/01 05:00:05;;;;;;;2.95;2.65;;;;;;;16.83;71.33;100180.91;5051592;28;20035;-88
2022/10/01 05:02:33;;;;;;;3.13;2.83;;;;;;;16.84;70.92;100140.03;5051707;28;20032;-88
2022/10/01 05:05:02;;;;;;;3.95;3.60;;;;;;;16.70;70.56;100099.66;5069546;28;20033;-89
2022/10/01 05:07:32;;;;;;;3.95;2.92;;;;;;;16.94;70.52;100128.16;5068595;28;20114;-89
2022/10/01 05:09:59;;;;;;;2.22;1.73;;;;;;;17.32;70.09;100149.09;5069077;28;20033;-89
2022/10/01 05:12:25;;;;;;;4.60;1.08;;;;;;;17.26;69.33;100096.84;5069956;28;20040;-89
2022/10/01 05:14:51;;;;;;;0.75;0.75;;;;;;;17.60;68.60;100118.75;5069606;28;20135;-89
2022/10/01 05:17:18;;;;;;;3.60;1.85;;;;;;;17.46;69.26;100112.13;5069288;28;20498;-88
2022/10/01 05:19:44;;;;;;;1.38;1.27;;;;;;;17.41;68.88;100102.53;5069248;28;20039;-89
2022/10/01 05:22:11;;;;;;;1.77;1.65;;;;;;;17.45;69.02;100097.03;5069110;28;20024;-87
2022/10/01 05:24:37;;;;;;;6.80;3.13;;;;;;;17.45;69.01;100083.69;5069442;28;20041;-88
2022/10/01 05:27:03;;;;;;;0.30;0.30;;;;;;;17.56;68.28;100085.97;5068990;28;20071;-89
2022/10/01 05:29:29;;;;;;;0.40;0.40;;;;;;;17.82;68.18;100097.44;5069547;28;20546;-88
2022/10/01 05:31:55;;;;;;;1.23;1.15;;;;;;;17.83;68.27;100117.88;5069042;28;20040;-88
2022/10/01 05:34:20;;;;;;;0.52;0.50;;;;;;;17.56;69.42;100106.44;5068813;28;20438;-89
2022/10/01 05:36:46;;;;;;;1.40;1.30;;;;;;;17.53;68.79;100092.31;5068620;28;20037;-89
2022/10/01 05:39:11;;;;;;;2.30;1.83;;;;;;;17.97;68.97;100157.41;5068872;28;20032;-89
2022/10/01 05:41:39;;;;;;;0.75;0.75;;;;;;;18.13;67.88;100118.50;5068671;28;20078;-88
2022/10/01 05:44:06;;;;;;;3.50;1.42;;;;;;;18.22;66.73;100104.78;5067801;28;20029;-88
2022/10/01 05:46:32;;;;;;;0.90;0.90;;;;;;;18.31;66.53;100084.88;5058776;28;20051;-88
2022/10/01 05:48:57;;;;;;;0.88;0.88;;;;;;;18.58;65.34;100080.19;5059487;28;20044;-88
2022/10/01 05:51:24;;;;;;;2.38;1.77;;;;;;;19.00;64.33;100118.53;5054544;28;20032;-87
2022/10/01 05:53:52;;;;;;;2.35;1.30;;;;;;;19.22;63.52;100152.38;5058397;28;20047;-89
2022/10/01 05:56:17;;;;;;;1.27;1.17;;;;;;;19.31;62.20;100138.59;5046797;28;20761;-89
2022/10/01 05:58:44;;;;;;;1.25;1.17;;;;;;;19.47;61.42;100120.91;5069324;28;20043;-90
2022/10/01 06:01:09;;;;;;;13.30;2.88;;;;;;;19.59;61.35;100148.06;5060554;28;20112;-89
2022/10/01 06:03:35;;;;;;;1.77;1.27;;;;;;;19.75;59.77;100126.81;5050100;28;20112;-89
2022/10/01 06:06:00;;;;;;;0.55;0.55;;;;;;;19.53;60.07;100113.56;5050395;28;20044;-90
2022/10/01 06:08:27;;;;;;;0.63;0.63;;;;;;;19.47;60.39;100099.50;5051362;28;20396;-92
2022/10/01 06:10:58;;;;;;;1.60;1.50;;;;;;;20.01;60.30;100125.63;5067225;28;20025;-90
2022/10/01 06:13:25;;;;;;;4.18;1.83;;;;;;;19.78;59.57;100066.00;5069142;28;20036;-87
2022/10/01 06:15:51;;;;;;;1.35;0.40;;;;;;;20.02;58.60;100101.47;5068625;28;20055;-87
2022/10/01 06:18:16;;;;;;;2.08;1.55;;;;;;;19.86;59.28;100100.44;5059701;28;20037;-88
2022/10/01 06:20:42;;;;;;;0.82;0.63;;;;;;;20.23;59.41;100157.59;5032743;28;20147;-85
2022/10/01 06:23:11;;;;;;;1.38;1.25;;;;;;;20.15;60.04;100155.28;5062078;28;20387;-88
2022/10/01 06:25:40;;;;;;;1.30;1.17;;;;;;;20.00;59.39;100129.25;5052664;28;20047;-86
2022/10/01 06:28:09;;;;;;;1.77;1.67;;;;;;;20.27;59.57;100128.88;5072260;28;20061;-86
2022/10/01 06:30:36;;;;;;;2.35;2.15;;;;;;;20.33;59.57;100112.50;5070325;28;20036;-84
2022/10/01 06:33:11;;;;;;;8.55;2.28;;;;;;;20.67;59.33;100145.72;5070891;28;20030;-85
2022/10/01 06:35:42;;;;;;;1.77;1.02;;;;;;;20.93;58.12;100137.22;5070770;28;20037;-87
2022/10/01 06:38:08;;;;;;;1.73;0.63;;;;;;;21.28;56.75;100136.34;5050911;28;20426;-85
2022/10/01 06:40:35;;;;;;;0.47;0.47;;;;;;;21.38;56.31;100148.31;5059814;28;20103;-84
2022/10/01 06:43:00;;;;;;;3.00;2.08;;;;;;;21.26;56.47;100128.38;5058999;28;20552;-86
2022/10/01 06:45:30;;;;;;;4.32;2.90;;;;;;;21.12;57.73;100147.00;5043639;28;20032;-89
2022/10/01 06:48:02;;;;;;;2.78;2.60;;;;;;;21.13;58.05;100150.53;5058297;28;20033;-86
2022/10/01 06:50:29;;;;;;;3.78;2.65;;;;;;;21.01;58.76;100184.25;5060260;28;20043;-88
2022/10/01 06:52:55;;;;;;;32.97;3.17;;;;;;;21.28;59.46;100166.69;5055882;28;20029;-86
2022/10/01 06:55:25;;;;;;;2.63;2.42;;;;;;;21.44;58.77;100164.09;5060485;28;20806;-89
2022/10/01 06:58:00;;;;;;;0.85;0.77;;;;;;;21.19;56.63;100150.22;5057052;28;20123;-86
2022/10/01 07:00:27;;;;;;;1.92;1.83;;;;;;;21.40;57.28;100156.28;5070922;28;20032;-88
2022/10/01 07:03:47;;;;;;;0.88;0.88;;;;;;;21.14;58.57;100158.50;5053495;28;20032;-89
2022/10/01 07:06:12;;;;;;;4.13;3.17;;;;;;;21.15;58.36;100137.91;5069388;28;20047;-87
2022/10/01 07:08:38;;;;;;;4.47;1.95;;;;;;;21.23;57.57;100127.66;5043649;28;20045;-90
2022/10/01 07:11:04;;;;;;;1.02;0.93;;;;;;;21.33;57.31;100165.59;5047748;28;20044;-88
2022/10/01 07:13:30;;;;;;;1.67;1.58;;;;;;;21.07;58.25;100143.69;5047410;28;20033;-89
2022/10/01 07:15:56;;;;;;;3.92;3.38;;;;;;;20.99;57.64;100119.06;5047058;28;20064;-90
2022/10/01 07:18:22;;;;;;;1.38;1.27;;;;;;;21.57;57.29;100153.59;5047614;28;20525;-90
2022/10/01 07:20:47;;;;;;;1.38;1.30;;;;;;;22.06;54.98;100162.63;5065937;28;20405;-91
2022/10/01 07:23:14;;;;;;;1.08;0.98;;;;;;;22.27;55.55;100139.06;5056782;28;20075;-90
2022/10/01 07:25:40;;;;;;;0.85;0.85;;;;;;;22.77;53.73;100194.47;5055628;28;20066;-89
2022/10/01 07:28:15;;;;;;;0.32;0.32;;;;;;;23.00;53.59;100171.63;5067803;28;20044;-89
2022/10/01 07:30:46;;;;;;;1.08;1.08;;;;;;;23.10;52.48;100161.19;5068348;28;20464;-88
2022/10/01 07:33:13;;;;;;;1.52;1.42;;;;;;;23.45;51.59;100151.94;5047523;28;20061;-89
2022/10/01 07:35:38;;;;;;;2.80;2.25;;;;;;;23.67;50.34;100160.44;5051132;28;20032;-88
2022/10/01 07:38:07;;;;;;;2.28;1.73;;;;;;;23.81;50.94;100174.88;5067357;28;20121;-88
2022/10/01 07:40:32;;;;;;;1.40;1.30;;;;;;;24.05;49.68;100177.84;5068122;28;20032;-89
2022/10/01 07:42:58;;;;;;;1.02;0.93;;;;;;;24.57;48.71;100179.03;5067642;28;20029;-88
2022/10/01 07:45:25;;;;;;;2.28;1.65;;;;;;;24.55;46.63;100106.31;5068182;28;20543;-88
2022/10/01 07:47:55;;;;;;;3.25;1.23;;;;;;;25.08;47.32;100137.88;5069670;28;20410;-89
2022/10/01 07:50:21;;;;;;;3.78;2.08;;;;;;;25.49;48.05;100163.91;5068608;28;20040;-89
2022/10/01 07:52:54;;;;;;;2.47;1.77;;;;;;;25.65;44.35;100126.72;5050350;28;20497;-88
2022/10/01 07:55:22;;;;;;;0.30;0.30;;;;;;;25.80;45.08;100149.06;5050348;28;20035;-89
2022/10/01 07:57:55;;;;;;;1.45;1.20;;;;;;;26.22;41.10;100101.00;5068743;28;20062;-88
2022/10/01 08:00:22;;;;;;;1.38;1.17;;;;;;;26.33;42.21;100139.91;5067549;28;20030;-89
2022/10/01 08:02:50;;;;;;;2.10;1.98;;;;;;;25.83;44.87;100129.09;5047350;28;20029;-89
2022/10/01 08:05:20;;;;;;;1.88;1.10;;;;;;;26.02;41.59;100142.16;5054049;28;20029;-90
2022/10/01 08:07:47;;;;;;;1.13;0.90;;;;;;;26.34;43.24;100111.91;5070407;28;20564;-90
2022/10/01 08:10:14;;;;;;;0.90;0.73;;;;;;;26.57;42.45;100119.16;5070587;28;20036;-88
2022/10/01 08:12:43;;;;;;;3.90;1.75;;;;;;;27.00;41.67;100128.56;5071566;28;20029;-87
2022/10/01 08:15:11;;;;;;;2.10;1.92;;;;;;;27.34;38.89;100125.97;5072298;28;20028;-88
2022/10/01 08:17:37;;;;;;;0.75;0.68;;;;;;;27.14;39.63;100136.50;5072517;28;20056;-88
2022/10/01 08:20:04;;;;;;;1.63;1.27;;;;;;;26.50;39.21;100138.66;5065234;28;20029;-91
2022/10/01 08:22:31;;;;;;;0.90;0.82;;;;;;;26.63;38.58;100132.22;5071448;28;20032;-90
2022/10/01 08:24:56;;;;;;;0.73;0.52;;;;;;;26.52;40.12;100112.34;5053749;28;20049;-89
2022/10/01 08:27:26;;;;;;;3.35;1.83;;;;;;;26.21;39.97;100084.91;5035138;28;20036;-90
2022/10/01 08:29:52;;;;;;;1.90;1.77;;;;;;;26.94;39.14;100120.91;5052203;28;20094;-92
2022/10/01 08:32:26;;;;;;;0.47;0.45;;;;;;;27.09;40.39;100121.56;5053440;28;20040;-92
2022/10/01 08:35:18;;;;;;;0.43;0.43;;;;;;;27.32;40.07;100081.91;5071655;28;20052;-96
2022/10/01 08:37:45;;;;;;;0.52;0.52;;;;;;;27.46;38.15;100083.50;5044084;28;20183;-89
2022/10/01 08:40:10;;;;;;;1.08;0.82;;;;;;;27.31;39.40;100050.34;5052039;28;20040;-89
2022/10/01 08:42:41;;;;;;;1.52;1.45;;;;;;;27.68;37.46;100112.44;5052094;28;20454;-86
2022/10/01 08:45:22;;;;;;;2.50;2.30;;;;;;;27.47;37.19;100085.25;5051972;28;20036;-91
2022/10/01 08:48:03;;;;;;;0.40;0.40;;;;;;;27.63;36.84;100072.19;5053523;28;20174;-94
2022/10/01 08:50:56;;;;;;;4.20;2.20;;;;;;;27.58;38.07;100087.97;5055006;28;20043;-91
2022/10/01 08:53:54;;;;;;;8.18;2.15;;;;;;;27.37;39.83;100068.84;5070330;28;20040;-91
2022/10/01 08:56:45;;;;;;;155.10;71.57;;;;;;;27.71;38.46;100076.97;5035621;28;20124;-95
2022/10/01 08:59:38;;;;;;;798.78;566.20;;;;;;;27.63;37.98;100085.72;5063526;28;20025;-94
2022/10/01 09:02:34;;;;;;;458.80;357.75;;;;;;;27.81;39.92;100101.50;5054594;28;20387;-90
2022/10/01 09:05:17;;;;;;;47.35;32.17;;;;;;;27.39;40.09;100112.94;5031806;28;20032;-87
2022/10/01 09:08:02;;;;;;;423.70;271.67;;;;;;;27.67;40.28;100108.88;5072379;28;20044;-87
2022/10/01 09:10:42;;;;;;;529.92;382.45;;;;;;;27.59;38.87;100113.19;5070976;28;20119;-88
2022/10/01 09:13:41;;;;;;;232.63;155.18;;;;;;;27.51;39.20;100092.13;5071120;28;20577;-85
2022/10/01 09:16:11;;;;;;;41.97;37.60;;;;;;;27.90;38.69;100072.78;5072579;28;20072;-89
2022/10/01 09:19:04;;;;;;;2.03;1.83;;;;;;;28.01;38.32;100054.69;5066734;28;20033;-86
2022/10/01 09:21:51;;;;;;;1.27;1.10;;;;;;;28.29;37.26;100089.50;5069769;28;20024;-87
2022/10/01 09:24:46;;;;;;;2.35;1.58;;;;;;;27.95;39.17;100101.28;5063873;28;20046;-92
2022/10/01 09:27:15;;;;;;;2.00;1.08;;;;;;;27.95;39.65;100078.69;5055679;28;20041;-91
2022/10/01 09:30:03;;;;;;;6.78;1.88;;;;;;;27.98;40.01;100101.03;5034387;28;20029;-86
2022/10/01 09:32:55;;;;;;;1.25;1.13;;;;;;;27.77;40.58;100119.84;5061084;28;20037;-89
2022/10/01 09:35:30;;;;;;;1.77;1.42;;;;;;;27.78;39.49;100120.72;5059822;28;20513;-89
2022/10/01 09:38:19;;;;;;;1.45;1.35;;;;;;;27.55;39.17;100063.81;5060786;28;20119;-90
2022/10/01 09:40:58;;;;;;;1.92;1.10;;;;;;;28.09;39.48;100110.13;5046401;28;20135;-88
2022/10/01 09:43:27;;;;;;;1.58;1.48;;;;;;;27.87;38.72;100079.31;5062584;28;20550;-89
2022/10/01 09:45:53;;;;;;;1.20;0.90;;;;;;;27.41;40.26;100080.31;5071168;28;20039;-89
2022/10/01 09:48:56;;;;;;;1.60;1.50;;;;;;;27.31;40.83;100075.63;5063468;28;20052;-87
2022/10/01 09:51:45;;;;;;;2.15;1.42;;;;;;;27.52;39.49;100092.00;5050701;28;20032;-89
2022/10/01 09:54:19;;;;;;;0.47;0.47;;;;;;;27.29;38.40;100064.00;5050178;28;20040;-88
2022/10/01 09:56:50;;;;;;;0.63;0.52;;;;;;;27.35;39.35;100051.03;5050885;28;20124;-90
2022/10/01 10:02:20;;;;;;;3.58;1.40;;;;;;;26.82;40.22;100083.97;5053887;28;20040;-90
2022/10/01 10:08:44;;;;;;;0.65;0.65;;;;;;;26.92;39.49;100079.56;5053574;28;20048;-89
2022/10/01 10:11:33;;;;;;;0.88;0.88;;;;;;;27.11;39.48;100074.47;5053465;28;20033;-90
2022/10/01 10:14:03;;;;;;;0.52;0.52;;;;;;;26.56;39.30;100041.66;5052174;28;20033;-90
2022/10/01 10:16:36;;;;;;;0.10;0.10;;;;;;;26.71;39.81;100082.97;5052438;28;20108;-91
2022/10/01 10:19:14;;;;;;;1.27;1.20;;;;;;;26.59;41.08;100097.41;5052403;28;20060;-89
2022/10/01 10:28:50;;;;;;;1.00;0.88;;;;;;;26.67;41.03;100113.06;5012325;28;20045;-90
2022/10/01 10:34:45;;;;;;;0.43;0.43;;;;;;;26.81;41.39;100134.53;5011196;28;20483;-90
2022/10/01 10:44:39;;;;;;;2.70;1.67;;;;;;;26.17;42.32;100132.06;5011289;28;20176;-91
2022/10/01 10:47:19;;;;;;;1.85;1.17;;;;;;;26.02;42.92;100124.09;5009966;28;20030;-91
2022/10/01 10:49:54;;;;;;;0.38;0.38;;;;;;;26.14;43.97;100132.31;5009731;28;20045;-90
2022/10/01 10:52:32;;;;;;;1.13;1.08;;;;;;;26.06;42.42;100174.25;5004614;28;20042;-92
2022/10/01 10:54:59;;;;;;;1.48;1.05;;;;;;;25.70;42.75;100170.50;5008870;28;20037;-92
2022/10/01 10:57:29;;;;;;;0.13;0.13;;;;;;;25.76;42.49;100134.03;5004123;28;20584;-92
2022/10/01 11:00:00;;;;;;;0.63;0.63;;;;;;;25.50;42.65;100093.56;5043253;28;20418;-91
2022/10/01 11:02:29;;;;;;;1.20;1.10;;;;;;;25.51;43.04;100089.88;5055005;28;20051;-92
2022/10/01 11:04:57;;;;;;;0.20;0.20;;;;;;;25.32;42.96;100100.28;5065997;28;20040;-91
2022/10/01 11:07:25;;;;;;;1.42;1.02;;;;;;;25.32;44.22;100136.22;5043885;28;20102;-89
2022/10/01 11:10:20;;;;;;;1.48;1.38;;;;;;;25.33;43.40;100124.47;5065475;28;20080;-90
2022/10/01 11:13:17;;;;;;;0.90;0.88;;;;;;;25.47;44.67;100164.00;5069744;28;20082;-92
2022/10/01 11:15:43;;;;;;;0.85;0.85;;;;;;;25.51;45.27;100184.41;5059178;28;20040;-92
2022/10/01 11:18:29;;;;;;;0.60;0.43;;;;;;;25.17;44.97;100215.53;5046511;28;20037;-91
2022/10/01 11:21:14;;;;;;;0.90;0.60;;;;;;;24.63;46.15;100140.91;5065176;28;20035;-90
2022/10/01 11:24:18;;;;;;;1.70;1.60;;;;;;;25.10;48.77;100181.81;5058391;28;20103;-91
2022/10/01 11:27:26;;;;;;;9.90;1.98;;;;;;;24.58;51.24;100108.00;5061783;28;20127;-87
2022/10/01 11:30:00;;;;;;;2.42;2.20;;;;;;;24.71;50.81;100176.31;5042667;28;20064;-89
2022/10/01 11:32:30;;;;;;;3.13;2.22;;;;;;;24.47;52.01;100136.50;5058982;28;20074;-89
2022/10/01 11:35:17;;;;;;;0.50;0.50;;;;;;;24.42;53.97;100133.25;5064952;28;20090;-89
2022/10/01 11:37:50;;;;;;;2.28;1.95;;;;;;;24.46;53.50;100129.34;5069032;28;20025;-90
2022/10/01 11:40:36;;;;;;;1.38;1.00;;;;;;;24.40;54.05;100088.47;5069107;28;20550;-90
2022/10/01 11:43:09;;;;;;;47.40;3.30;;;;;;;24.29;53.39;100073.88;5068908;28;20020;-88
2022/10/01 11:45:42;;;;;;;2.13;1.63;;;;;;;24.63;54.06;100108.53;5054200;28;20506;-90
2022/10/01 11:48:42;;;;;;;1.67;1.52;;;;;;;24.77;53.18;100086.88;5051652;28;20545;-91
2022/10/01 11:51:13;;;;;;;0.50;0.50;;;;;;;24.34;52.49;100026.88;5061679;28;20430;-90
2022/10/01 11:53:46;;;;;;;4.55;3.25;;;;;;;24.67;52.04;100035.41;5062008;28;20033;-89
2022/10/01 11:59:49;;;;;;;7.80;2.22;;;;;;;25.16;51.62;100036.53;5061656;28;20163;-88
2022/10/01 12:02:38;;;;;;;2.85;2.28;;;;;;;25.28;50.46;100023.13;5057456;28;20494;-88
2022/10/01 12:05:12;;;;;;;1.33;1.23;;;;;;;25.43;49.94;100022.06;5048359;28;20108;-88
2022/10/01 12:08:03;;;;;;;3.55;2.15;;;;;;;25.62;47.77;99996.44;5049712;28;20033;-88
2022/10/01 12:10:46;;;;;;;2.05;1.13;;;;;;;25.34;48.54;99966.03;5032584;28;20438;-90
2022/10/01 12:13:14;;;;;;;9.85;2.13;;;;;;;25.34;48.26;99990.34;5049795;28;20033;-90